Nearby METAR Reports

 

KMEV - Minden, Nevada, USA
Distance from station: N 3mi, 5km
Updated: Sun, 20-Aug-2017 7:35pm PDT
Clear
Clear
 Wind from SE
Wind: SE 9 mph , 15 km/h
Temperature: 72°F , 22°C
Dew Point: 46°F , 8°C
Humidity: 41%
Barometer: 30.05 inHg , 1017.6 hPa
Clouds: Clear
Visibility: 10 miles , 16 km
2017/08/21 02:35 KMEV 210235Z AUTO 13008KT 10SM CLR 22/08 A3005 RMK AO2
KCXP - Carson City, Nevada, USA
Distance from station: N 10mi, 16km
Updated: Fri, 18-Aug-2017 2:35pm PDT
NOT Current
Haze, Clear
Haze, Clear
 Wind from SW
Wind: SW 6 mph , 9 km/h
Temperature: 93°F , 34°C
Dew Point: 32°F , 0°C
Humidity: 11%
Barometer: 30.13 inHg , 1020.3 hPa
Summary: Haze
Clouds: Clear
Visibility: 3 miles , 5 km
2017/08/18 21:35 KCXP 182135Z AUTO 23005KT 3SM HZ CLR 34/00 A3013 RMK AO2
 
KTVL - South Lake Tahoe, California, USA
Distance from station: WSW 18mi, 29km
Updated: Sun, 20-Aug-2017 6:53pm PDT
Clear
Clear
 Wind from S
Wind: S 7 mph , 11 km/h
Temperature: 64°F , 18°C
Dew Point: 45°F , 7°C
Humidity: 49%
Barometer: 30.17 inHg , 1021.7 hPa
Clouds: Clear
Visibility: 10 miles , 16 km
2017/08/21 01:53 KTVL 210153Z AUTO 18006KT 10SM CLR 18/07 A3017 RMK AO2 SLP168 T01830072
KTRK - Truckee Tahoe, California, USA
Distance from station: NW 29mi, 46km
Updated: Sun, 20-Aug-2017 7:35pm PDT
Partly cloudy
Partly cloudy
 Wind from W
Wind: W 6 mph , 9 km/h
Temperature: 70°F , 21°C
Dew Point: 52°F , 11°C
Humidity: 53%
Barometer: 30.16 inHg , 1021.3 hPa
Clouds: Partly cloudy
Visibility: 10 miles , 16 km
Cloud details: Partly cloudy 12000 ft
2017/08/21 02:35 KTRK 210235Z AUTO 28005KT 10SM SCT120 21/11 A3016 RMK AO2
 
KRNO - Reno, Nevada, USA
Distance from station: N 31mi, 50km
Updated: Sun, 20-Aug-2017 6:55pm PDT
Partly cloudy
Partly cloudy
 Wind from WNW
Wind: WNW 16 mph , 26 km/h
Temperature: 90°F , 32°C
Dew Point: 41°F , 5°C
Humidity: 18%
Barometer: 29.97 inHg , 1014.9 hPa
Clouds: Partly cloudy
Visibility: 10 miles , 16 km
Cloud details: Partly cloudy 12000 ft
Partly cloudy 16000 ft
Partly cloudy 25000 ft
2017/08/21 01:55 KRNO 210155Z 29014KT 10SM SCT120 SCT160 SCT250 32/05 A2997 RMK AO2 SLP088 HZ ALQDS T03220050 $
KRTS - Reno/Stead, Nevada, USA
Distance from station: NNW 44mi, 71km
Updated: Sun, 20-Aug-2017 7:35pm PDT
Clear
Clear
 Wind from W
Wind: W 10 mph , 17 km/h
Temperature: 77°F , 25°C
Dew Point: 41°F , 5°C
Humidity: 28%
Barometer: 30.07 inHg , 1018.3 hPa
Clouds: Clear
Visibility: 10 miles , 16 km
2017/08/21 02:35 KRTS 210235Z AUTO 28009KT 10SM CLR 25/05 A3007 RMK AO2
 
KBLU - Emigrant Gap, California, USA
Distance from station: WNW 55mi, 89km
Updated: Sun, 20-Aug-2017 6:52pm PDT
Clear
Clear
 Wind from SSE
Wind: SSE 5 mph , 7 km/h
Temperature: 70°F , 21°C
Dew Point: 54°F , 12°C
Humidity: 57%
Barometer: 30.13 inHg , 1020.3 hPa
Clouds: Clear
Visibility: 10 miles , 16 km
2017/08/21 01:52 KBLU 210152Z AUTO 16004KT 10SM CLR 21/12 A3013 RMK AO2 SLP105 T02110122 TSNO $
KPVF - Placerville, California, USA
Distance from station: WSW 60mi, 96km
Updated: Thu, 03-Aug-2017 10:55am PDT
NOT Current
Clear
Clear
 Wind from SW
Wind: SW 6 mph , 9 km/h
Temperature: 90°F , 32°C
Dew Point: 48°F , 9°C
Humidity: 24%
Barometer: 30.08 inHg , 1018.6 hPa
Clouds: Clear
Visibility: 10 miles , 16 km
2017/08/03 17:55 KPVF 031755Z AUTO 23005KT 10SM CLR 32/09 A3008 RMK AO1
 
KNFL - Fallon Nas, Nevada, USA
Distance from station: ENE 61mi, 97km
Updated: Sun, 20-Aug-2017 6:56pm PDT
Clear
Clear
 Wind from N
Wind: N 7 mph , 11 km/h
Temperature: 91°F , 33°C
Dew Point: 25°F , -4°C
Humidity: 9%
Barometer: 29.91 inHg , 1012.9 hPa
Clouds: Clear
Visibility: 10 miles , 16 km
2017/08/21 01:56 KNFL 210156Z AUTO 35006KT 10SM CLR 33/M04 A2991 RMK AO2 SLP102 T03331039
KGOO - Grass Valley, California, USA
Distance from station: W 70mi, 112km
Updated: Fri, 05-May-2017 6:55am PDT
NOT Current
Clear
Clear
 Wind from SE
Wind: SE 3 mph , 6 km/h
Temperature: 59°F , 15°C
Dew Point: 46°F , 8°C
Humidity: 63%
Barometer: 29.93 inHg , 1013.5 hPa
Clouds: Clear
Visibility: 10 miles , 16 km
2017/05/05 13:55 KGOO 051355Z AUTO 14003KT 10SM CLR 15/08 A2993 RMK AO1
 
KAUN - Auburn Muni, California, USA
Distance from station: W 73mi, 118km
Updated: Sun, 20-Aug-2017 7:35pm PDT
Clear
Clear
 Wind from SW
Wind: SW 6 mph , 9 km/h
Temperature: 84°F , 29°C
Heat Index: 90°F , 32°C
Dew Point: 73°F , 23°C
Humidity: 70%
Barometer: 29.86 inHg , 1011.2 hPa
Clouds: Clear
Visibility: 10 miles , 16 km
2017/08/21 02:35 KAUN 210235Z AUTO 23005KT 10SM CLR 29/23 A2986 RMK AO1
KO22 - Columbia, California, USA
Distance from station: SSW 79mi, 127km
Updated: Sun, 20-Aug-2017 7:35pm PDT
Clear
Clear
 Wind from calm
Wind: Calm
Temperature: 81°F , 27°C
Dew Point: 54°F , 12°C
Humidity: 39%
Barometer: 29.91 inHg , 1012.9 hPa
Clouds: Clear
Visibility: 10 miles , 16 km
2017/08/21 02:35 KO22 210235Z AUTO 00000KT 10SM CLR 27/12 A2991 RMK AO1
 
KLHM - Lincoln, California, USA
Distance from station: W 88mi, 141km
Updated: Sun, 20-Aug-2017 7:35pm PDT
Clear
Clear
 Wind from SSW
Wind: SSW 9 mph , 15 km/h
Temperature: 86°F , 30°C
Dew Point: 52°F , 11°C
Humidity: 31%
Barometer: 29.77 inHg , 1008.1 hPa
Clouds: Clear
Visibility: 10 miles , 16 km
2017/08/21 02:35 KLHM 210235Z AUTO 20008KT 10SM CLR 30/11 A2977 RMK AO1
KBAB - Beale Afb/Marysv, California, USA
Distance from station: W 91mi, 147km
Updated: Sun, 20-Aug-2017 1:58pm PDT
NOT Current
Clear
Clear
 Wind from calm
Wind: Calm
Temperature: 86°F , 30°C
Heat Index: 87°F , 31°C
Dew Point: 63°F , 17°C
Humidity: 46%
Barometer: 29.80 inHg , 1009.1 hPa
Clouds: Clear
Visibility: 10 miles , 16 km
2017/08/20 20:58 KBAB 202058Z AUTO 00000KT 10SM CLR 30/17 A2980 RMK AO2 SLP093 T03010166 57011 $
 
KMHR - Mather Field, California, USA
Distance from station: WSW 91mi, 147km
Updated: Sun, 20-Aug-2017 7:45pm PDT
Partly cloudy
Partly cloudy
 Wind from SSW
Wind: SSW 13 mph , 20 km/h
Temperature: 79°F , 26°C
Dew Point: 59°F , 15°C
Humidity: 51%
Barometer: 29.78 inHg , 1008.5 hPa
Clouds: Partly cloudy
Visibility: 10 miles , 16 km
Cloud details: Partly cloudy 15000 ft
2017/08/21 02:45 KMHR 210245Z 21011KT 10SM SCT150 26/15 A2978
KLOL - Lovelock, Nevada, USA
Distance from station: NE 94mi, 151km
Updated: Sun, 20-Aug-2017 6:53pm PDT
Clear
Clear
 Wind from NNE
Wind: NNE 6 mph , 9 km/h
Temperature: 91°F , 33°C
Dew Point: 34°F , 1°C
Humidity: 13%
Barometer: 29.91 inHg , 1012.9 hPa
Clouds: Clear
Visibility: 10 miles , 16 km
2017/08/21 01:53 KLOL 210153Z AUTO 02005KT 10SM CLR 33/01 A2991 RMK AO2 SLP082 T03330006 TSNO
 
KMCC - Mcclellan Afb, California, USA
Distance from station: WSW 94mi, 151km
Updated: Sun, 20-Aug-2017 7:35pm PDT
Clear
Clear
 Wind from S
Wind: S 10 mph , 17 km/h
Temperature: 81°F , 27°C
Heat Index: 81°F , 27°C
Dew Point: 57°F , 14°C
Humidity: 45%
Barometer: 29.80 inHg , 1009.1 hPa
Clouds: Clear
Visibility: 10 miles , 16 km
2017/08/21 02:35 KMCC 210235Z AUTO 17009KT 10SM CLR 27/14 A2980 RMK AO2
KMYV - Marysville, California, USA
Distance from station: W 99mi, 159km
Updated: Sun, 20-Aug-2017 6:53pm PDT
Clear
Clear
 Wind from SSW
Wind: SSW 9 mph , 15 km/h
Temperature: 90°F , 32°C
Dew Point: 59°F , 15°C
Humidity: 36%
Barometer: 29.77 inHg , 1008.1 hPa
Clouds: Clear
Visibility: 10 miles , 16 km
2017/08/21 01:53 KMYV 210153Z AUTO 20008KT 10SM CLR 32/15 A2977 RMK AO2 SLP084 T03170150
Honor Flight NV - Honoring all of our Veterans CoCoRaHS (Community Collaborative Rain, Hail and Snow Network) Station Number: NV-DG-2 Live Lightning Map - USA Reno Skywarn Spotter ID: DO21 AlertID Southwestern Weather Network Carson Valley Community Food Closet - providing for the needs of our community